createdAt,value
2018-10-05T00:02:22.834Z,15.83
2018-10-05T00:04:50.614Z,15.07
2018-10-05T00:07:18.443Z,13.43
2018-10-05T00:09:46.234Z,15.07
2018-10-05T00:12:13.998Z,12.10
2018-10-05T00:14:41.786Z,12.90
2018-10-05T00:17:09.563Z,9.60
2018-10-05T00:19:37.355Z,16.77
2018-10-05T00:22:05.145Z,11.27
2018-10-05T00:24:33.020Z,11.97
2018-10-05T00:27:00.790Z,11.47
2018-10-05T00:29:28.588Z,14.23
2018-10-05T00:31:56.374Z,10.50
2018-10-05T00:34:24.142Z,11.77
2018-10-05T00:36:51.978Z,10.30
2018-10-05T00:39:19.754Z,10.07
2018-10-05T00:41:47.646Z,12.73
2018-10-05T00:44:15.441Z,10.20
2018-10-05T00:46:43.206Z,11.83
2018-10-05T00:49:10.985Z,13.10
2018-10-05T00:51:38.764Z,11.33
2018-10-05T00:54:06.662Z,10.10
2018-10-05T00:56:34.431Z,11.03
2018-10-05T00:59:02.223Z,12.73
2018-10-05T01:01:30.017Z,14.20
2018-10-05T01:03:57.847Z,7.37
2018-10-05T01:06:25.725Z,14.23
2018-10-05T01:08:53.495Z,9.90
2018-10-05T01:11:21.338Z,15.73
2018-10-05T01:13:49.098Z,10.70
2018-10-05T01:16:16.974Z,13.30
2018-10-05T01:18:44.822Z,10.97
2018-10-05T01:21:12.627Z,12.77
2018-10-05T01:23:40.381Z,8.97
2018-10-05T01:26:08.230Z,11.23
2018-10-05T01:28:36.036Z,11.57
2018-10-05T01:31:03.818Z,10.30
2018-10-05T01:33:31.629Z,10.00
2018-10-05T01:35:59.490Z,13.50
2018-10-05T01:38:27.308Z,11.20
2018-10-05T01:40:55.113Z,12.30
2018-10-05T01:43:22.918Z,14.03
2018-10-05T01:45:50.681Z,10.43
2018-10-05T01:48:18.542Z,10.10
2018-10-05T01:50:46.312Z,12.57
2018-10-05T01:53:14.071Z,14.60
2018-10-05T01:55:41.841Z,11.00
2018-10-05T01:58:09.645Z,10.00
2018-10-05T02:00:37.476Z,11.43
2018-10-05T02:03:05.296Z,9.93
2018-10-05T02:05:33.175Z,9.93
2018-10-05T02:08:00.956Z,10.30
2018-10-05T02:10:28.752Z,16.00
2018-10-05T02:12:56.522Z,11.67
2018-10-05T02:15:24.285Z,12.23
2018-10-05T02:17:52.108Z,10.57
2018-10-05T02:20:19.931Z,14.70
2018-10-05T02:22:47.766Z,9.27
2018-10-05T02:25:15.568Z,9.13
2018-10-05T02:27:43.371Z,9.33
2018-10-05T02:30:11.258Z,6.80
2018-10-05T02:32:39.063Z,13.07
2018-10-05T02:35:06.875Z,11.20
2018-10-05T02:37:34.659Z,10.67
2018-10-05T02:40:02.481Z,8.70
2018-10-05T02:42:30.317Z,8.67
2018-10-05T02:44:58.166Z,10.77
2018-10-05T02:47:25.940Z,15.83
2018-10-05T02:49:53.733Z,10.40
2018-10-05T02:52:21.518Z,9.50
2018-10-05T02:54:49.298Z,8.43
2018-10-05T02:57:17.167Z,13.50
2018-10-05T02:59:44.939Z,13.07
2018-10-05T03:02:18.740Z,11.40
2018-10-05T03:04:46.489Z,12.10
2018-10-05T03:07:14.311Z,10.07
2018-10-05T03:09:42.270Z,9.90
2018-10-05T03:12:10.197Z,9.60
2018-10-05T03:14:38.165Z,11.03
2018-10-05T03:17:06.171Z,12.07
2018-10-05T03:19:34.104Z,13.60
2018-10-05T03:22:01.906Z,9.67
2018-10-05T03:24:29.726Z,10.67
2018-10-05T03:26:57.567Z,10.40
2018-10-05T03:29:25.382Z,14.37
2018-10-05T03:31:53.218Z,10.80
2018-10-05T03:34:21.109Z,12.50
2018-10-05T03:36:49.009Z,9.50
2018-10-05T03:39:16.839Z,13.57
2018-10-05T03:41:44.599Z,11.00
2018-10-05T03:44:12.422Z,8.60
2018-10-05T03:46:40.194Z,14.03
2018-10-05T03:49:07.973Z,11.10
2018-10-05T03:51:35.733Z,11.70
2018-10-05T03:54:03.558Z,12.50
2018-10-05T03:56:31.366Z,10.20
2018-10-05T03:58:59.158Z,12.90
2018-10-05T04:01:26.930Z,10.20
2018-10-05T04:03:54.730Z,11.90
2018-10-05T04:06:22.545Z,11.47
2018-10-05T04:08:50.357Z,7.87
2018-10-05T04:11:18.298Z,9.27
2018-10-05T04:13:46.106Z,12.37
2018-10-05T04:16:13.927Z,10.20
2018-10-05T04:18:41.702Z,14.37
2018-10-05T04:21:09.519Z,16.93
2018-10-05T04:23:37.309Z,12.03
2018-10-05T04:26:05.082Z,17.20
2018-10-05T04:28:32.904Z,12.20
2018-10-05T04:31:00.694Z,13.80
2018-10-05T04:33:28.461Z,17.13
2018-10-05T04:35:56.251Z,15.60
2018-10-05T04:38:24.030Z,28.77
2018-10-05T04:40:51.807Z,17.33
2018-10-05T04:43:19.615Z,16.10
2018-10-05T04:45:47.449Z,14.23
2018-10-05T04:48:15.259Z,12.23
2018-10-05T04:50:43.028Z,12.87
2018-10-05T04:53:10.802Z,15.07
2018-10-05T04:55:38.598Z,12.63
2018-10-05T04:58:06.397Z,15.03
2018-10-05T05:00:34.279Z,13.50
2018-10-05T05:03:02.138Z,9.50
2018-10-05T05:05:30.813Z,10.63
2018-10-05T05:07:58.641Z,14.03
2018-10-05T05:10:26.653Z,11.53
2018-10-05T05:12:54.456Z,12.77
2018-10-05T05:15:22.315Z,14.50
2018-10-05T05:17:50.077Z,10.33
2018-10-05T05:20:17.910Z,12.03
2018-10-05T05:22:45.731Z,21.90
2018-10-05T05:25:13.546Z,17.87
2018-10-05T05:27:41.492Z,10.60
2018-10-05T05:30:09.419Z,9.73
2018-10-05T05:32:37.339Z,11.70
2018-10-05T05:35:05.223Z,13.87
2018-10-05T05:37:33.047Z,8.70
2018-10-05T05:40:00.797Z,10.00
2018-10-05T05:42:28.569Z,8.77
2018-10-05T05:44:56.351Z,13.60
2018-10-05T05:47:24.150Z,6.77
2018-10-05T05:49:51.956Z,15.00
2018-10-05T05:52:19.713Z,6.93
2018-10-05T05:54:47.533Z,8.87
2018-10-05T05:57:15.305Z,9.43
2018-10-05T05:59:43.102Z,11.47
2018-10-05T06:02:10.882Z,9.47
2018-10-05T06:04:38.665Z,5.57
2018-10-05T06:07:06.576Z,6.30
2018-10-05T06:09:34.374Z,8.43
2018-10-05T06:12:02.162Z,11.83
2018-10-05T06:14:29.958Z,9.93
2018-10-05T06:16:57.859Z,10.53
2018-10-05T06:19:25.673Z,6.50
2018-10-05T06:21:53.599Z,7.77
2018-10-05T06:24:21.338Z,7.83
2018-10-05T06:26:49.123Z,7.60
2018-10-05T06:29:16.930Z,18.00
2018-10-05T06:31:44.786Z,12.23
2018-10-05T06:34:12.541Z,15.53
2018-10-05T06:36:40.374Z,8.00
2018-10-05T06:39:08.850Z,12.53
2018-10-05T06:41:36.790Z,8.73
2018-10-05T06:44:04.546Z,6.60
2018-10-05T06:46:32.302Z,9.07
2018-10-05T06:49:00.135Z,6.40
2018-10-05T06:51:27.937Z,12.90
2018-10-05T06:53:55.725Z,10.90
2018-10-05T06:56:23.545Z,11.70
2018-10-05T06:58:51.441Z,13.63
2018-10-05T07:01:19.285Z,9.10
2018-10-05T07:03:47.085Z,13.57
2018-10-05T07:06:14.857Z,8.10
2018-10-05T07:08:42.653Z,10.43
2018-10-05T07:11:10.585Z,9.80
2018-10-05T07:13:38.365Z,11.83
2018-10-05T07:16:06.250Z,13.40
2018-10-05T07:18:34.127Z,10.53
2018-10-05T07:21:01.943Z,14.53
2018-10-05T07:23:29.761Z,16.40
2018-10-05T07:25:57.623Z,14.83
2018-10-05T07:28:25.506Z,13.10
2018-10-05T07:30:53.334Z,13.43
2018-10-05T07:33:21.174Z,10.07
2018-10-05T07:35:49.055Z,9.77
2018-10-05T07:38:16.856Z,9.87
2018-10-05T07:40:44.721Z,10.57
2018-10-05T07:43:12.496Z,11.00
2018-10-05T07:45:40.374Z,13.60
2018-10-05T07:48:08.275Z,10.73
2018-10-05T07:50:36.261Z,9.70
2018-10-05T07:53:04.167Z,9.60
2018-10-05T07:55:31.955Z,13.97
2018-10-05T07:57:59.754Z,13.60
2018-10-05T08:00:27.537Z,9.33
2018-10-05T08:02:55.360Z,13.03
2018-10-05T08:05:23.201Z,15.37
2018-10-05T08:07:51.069Z,7.77
2018-10-05T08:10:18.937Z,8.43
2018-10-05T08:12:46.698Z,13.47
2018-10-05T08:15:14.645Z,9.43
2018-10-05T08:17:42.570Z,12.30
2018-10-05T08:20:10.382Z,9.23
2018-10-05T08:22:38.215Z,8.20
2018-10-05T08:25:06.078Z,10.63
2018-10-05T08:27:33.870Z,10.83
2018-10-05T08:30:01.655Z,7.20
2018-10-05T08:32:30.384Z,8.37
2018-10-05T08:34:58.145Z,9.07
2018-10-05T08:37:25.966Z,7.43
2018-10-05T08:39:53.847Z,7.37
2018-10-05T08:42:21.834Z,9.33
2018-10-05T08:44:49.585Z,6.93
2018-10-05T08:47:17.381Z,10.77
2018-10-05T08:49:45.198Z,9.03
2018-10-05T08:52:13.008Z,7.87
2018-10-05T08:54:40.770Z,10.50
2018-10-05T08:57:08.725Z,10.97
2018-10-05T08:59:36.666Z,7.27
2018-10-05T09:02:04.799Z,6.90
2018-10-05T09:04:32.583Z,11.13
2018-10-05T09:07:00.361Z,8.17
2018-10-05T09:09:28.118Z,9.70
2018-10-05T09:11:55.934Z,7.37
2018-10-05T09:14:23.686Z,7.90
2018-10-05T09:16:51.521Z,10.10
2018-10-05T09:19:19.336Z,9.17
2018-10-05T09:21:47.133Z,10.23
2018-10-05T09:24:14.943Z,8.90
2018-10-05T09:26:42.777Z,7.73
2018-10-05T09:29:10.633Z,7.87
2018-10-05T09:31:38.422Z,5.60
2018-10-05T09:34:06.174Z,6.97
2018-10-05T09:36:33.956Z,9.17
2018-10-05T09:39:01.789Z,7.00
2018-10-05T09:41:29.667Z,6.83
2018-10-05T09:43:57.417Z,7.43
2018-10-05T09:46:25.244Z,6.93
2018-10-05T09:48:53.009Z,8.23
2018-10-05T09:51:20.762Z,7.63
2018-10-05T09:53:48.698Z,6.10
2018-10-05T09:56:16.537Z,8.13
2018-10-05T09:58:44.445Z,6.87
2018-10-05T10:01:17.341Z,7.47
2018-10-05T10:03:45.306Z,8.63
2018-10-05T10:06:13.094Z,9.47
2018-10-05T10:08:40.878Z,7.80
2018-10-05T10:11:08.655Z,5.60
2018-10-05T10:13:36.458Z,5.70
2018-10-05T10:16:04.269Z,6.63
2018-10-05T10:18:32.085Z,7.60
2018-10-05T10:21:00.075Z,6.43
2018-10-05T10:23:27.891Z,7.70
2018-10-05T10:25:55.691Z,9.17
2018-10-05T10:28:23.576Z,11.70
2018-10-05T10:30:51.334Z,6.47
2018-10-05T10:33:19.190Z,7.53
2018-10-05T10:35:47.014Z,7.07
2018-10-05T10:38:14.830Z,6.33
2018-10-05T10:40:42.613Z,7.77
2018-10-05T10:43:10.389Z,9.30
2018-10-05T10:45:38.254Z,6.00
2018-10-05T10:48:06.268Z,5.50
2018-10-05T10:50:34.011Z,7.50
2018-10-05T10:53:01.954Z,7.20
2018-10-05T10:55:29.727Z,6.40
2018-10-05T10:57:57.516Z,6.30
2018-10-05T11:00:25.287Z,5.47
2018-10-05T11:02:53.189Z,5.27
2018-10-05T11:05:20.968Z,6.03
2018-10-05T11:07:48.769Z,8.90
2018-10-05T11:10:16.583Z,4.63
2018-10-05T11:12:44.403Z,6.07
2018-10-05T11:15:12.173Z,4.87
2018-10-05T11:17:39.999Z,5.27
2018-10-05T11:20:07.931Z,5.07
2018-10-05T11:22:35.705Z,6.47
2018-10-05T11:25:03.620Z,6.23
2018-10-05T11:27:31.459Z,4.47
2018-10-05T11:29:59.234Z,6.03
2018-10-05T11:32:27.067Z,5.30
2018-10-05T11:34:54.863Z,4.53
2018-10-05T11:37:22.754Z,5.77
2018-10-05T11:39:50.522Z,6.77
2018-10-05T11:42:18.310Z,5.83
2018-10-05T11:44:46.157Z,7.40
2018-10-05T11:47:14.090Z,5.30
2018-10-05T11:49:41.881Z,4.27
2018-10-05T11:52:09.646Z,4.03
2018-10-05T11:54:37.499Z,7.37
2018-10-05T11:57:05.265Z,4.50
2018-10-05T11:59:33.077Z,6.03
2018-10-05T12:02:00.882Z,6.30
2018-10-05T12:04:28.683Z,5.90
2018-10-05T12:06:56.484Z,5.67
2018-10-05T12:09:24.249Z,4.50
2018-10-05T12:11:52.128Z,5.70
2018-10-05T12:14:19.885Z,4.00
2018-10-05T12:16:47.689Z,11.07
2018-10-05T12:19:15.554Z,4.00
2018-10-05T12:21:43.346Z,4.40
2018-10-05T12:24:11.150Z,8.17
2018-10-05T12:26:38.999Z,5.10
2018-10-05T12:29:06.869Z,4.70
2018-10-05T12:31:34.629Z,5.00
2018-10-05T12:34:02.406Z,5.40
2018-10-05T12:36:30.182Z,4.90
2018-10-05T12:38:58.250Z,4.23
2018-10-05T12:41:26.077Z,5.20
2018-10-05T12:43:53.865Z,5.63
2018-10-05T12:46:21.695Z,6.43
2018-10-05T12:48:49.455Z,5.10
2018-10-05T12:51:17.230Z,5.67
2018-10-05T12:53:45.007Z,4.83
2018-10-05T12:56:12.773Z,4.30
2018-10-05T12:58:40.646Z,8.53
2018-10-05T13:01:08.410Z,8.57
2018-10-05T13:03:36.306Z,5.87
2018-10-05T13:06:04.073Z,5.30
2018-10-05T13:08:31.978Z,5.90
2018-10-05T13:10:59.847Z,4.43
2018-10-05T13:13:27.609Z,5.43
2018-10-05T13:15:55.480Z,5.30
2018-10-05T13:18:23.280Z,4.10
2018-10-05T13:20:51.100Z,3.33
2018-10-05T13:23:18.873Z,4.37
2018-10-05T13:25:46.712Z,5.57
2018-10-05T13:28:14.557Z,7.30
2018-10-05T13:30:42.357Z,7.30
2018-10-05T13:33:10.179Z,6.50
2018-10-05T13:35:37.970Z,7.53
2018-10-05T13:38:05.859Z,5.87
2018-10-05T13:40:33.657Z,11.07
2018-10-05T13:43:01.427Z,6.60
2018-10-05T13:45:29.226Z,8.60
2018-10-05T13:47:56.986Z,5.43
2018-10-05T13:50:24.847Z,4.53
2018-10-05T13:52:52.610Z,5.90
2018-10-05T13:55:20.463Z,5.43
2018-10-05T13:57:48.241Z,5.10
2018-10-05T14:00:16.085Z,4.03
2018-10-05T14:02:43.935Z,12.50
2018-10-05T14:05:11.728Z,12.00
2018-10-05T14:07:39.563Z,6.43
2018-10-05T14:10:07.379Z,5.47
2018-10-05T14:12:35.214Z,7.50
2018-10-05T14:15:02.990Z,4.90
2018-10-05T14:17:30.755Z,8.53
2018-10-05T14:19:58.547Z,5.73
2018-10-05T14:22:26.326Z,4.43
2018-10-05T14:24:54.102Z,6.20
2018-10-05T14:27:21.886Z,4.43
2018-10-05T14:29:49.725Z,4.63
2018-10-05T14:32:17.477Z,4.73
2018-10-05T14:34:45.246Z,6.20
2018-10-05T14:37:13.061Z,5.17
2018-10-05T14:39:40.850Z,11.77
2018-10-05T14:42:08.652Z,7.03
2018-10-05T14:44:36.414Z,3.63
2018-10-05T14:47:04.275Z,25.70
2018-10-05T14:49:32.218Z,4.53
2018-10-05T14:52:00.014Z,4.77
2018-10-05T14:54:27.804Z,5.07
2018-10-05T14:56:55.603Z,6.77
2018-10-05T14:59:23.431Z,3.70
2018-10-05T15:01:51.254Z,7.80
2018-10-05T15:04:19.210Z,9.50
2018-10-05T15:06:46.966Z,6.63
2018-10-05T15:09:14.742Z,10.67
2018-10-05T15:11:42.522Z,4.47
2018-10-05T15:14:10.265Z,7.83
2018-10-05T15:16:38.090Z,13.40
2018-10-05T15:19:05.849Z,5.43
2018-10-05T15:21:33.719Z,8.97
2018-10-05T15:24:01.506Z,6.07
2018-10-05T15:26:29.319Z,6.80
2018-10-05T15:28:57.134Z,6.33
2018-10-05T15:31:24.962Z,8.30
2018-10-05T15:33:52.715Z,5.10
2018-10-05T15:36:20.502Z,36.30
2018-10-05T15:38:48.454Z,13.57
2018-10-05T15:41:16.296Z,6.73
2018-10-05T15:43:44.045Z,6.63
2018-10-05T15:46:15.866Z,9.43
2018-10-05T15:48:43.655Z,12.07
2018-10-05T15:51:11.458Z,11.13
2018-10-05T15:53:39.263Z,7.23
2018-10-05T15:56:07.019Z,8.33
2018-10-05T15:58:34.878Z,9.37
2018-10-05T16:01:02.625Z,7.43
2018-10-05T16:03:30.407Z,6.90
2018-10-05T16:05:58.221Z,7.43
2018-10-05T16:08:25.974Z,16.60
2018-10-05T16:10:53.750Z,8.30
2018-10-05T16:13:21.534Z,8.00
2018-10-05T16:15:49.501Z,7.90
2018-10-05T16:18:17.386Z,8.70
2018-10-05T16:20:45.134Z,7.90
2018-10-05T16:23:12.913Z,12.43
2018-10-05T16:25:40.700Z,12.17
2018-10-05T16:28:08.519Z,10.90
2018-10-05T16:30:36.305Z,9.37
2018-10-05T16:33:04.162Z,8.10
2018-10-05T16:35:31.958Z,11.13
2018-10-05T16:37:59.775Z,12.50
2018-10-05T16:40:27.610Z,9.50
2018-10-05T16:42:55.381Z,11.23
2018-10-05T16:45:23.145Z,14.80
2018-10-05T16:47:50.897Z,11.07
2018-10-05T16:50:18.749Z,9.60
2018-10-05T16:52:46.579Z,12.17
2018-10-05T16:55:14.398Z,26.97
2018-10-05T16:57:42.177Z,29.73
2018-10-05T17:00:09.936Z,18.93
2018-10-05T17:02:37.739Z,14.27
2018-10-05T17:05:05.569Z,60.00
2018-10-05T17:07:33.458Z,46.97
2018-10-05T17:10:01.226Z,30.40
2018-10-05T17:12:29.054Z,13.93
2018-10-05T17:14:56.838Z,21.30
2018-10-05T17:17:24.603Z,18.90
2018-10-05T17:19:52.371Z,10.00
2018-10-05T17:22:20.135Z,11.13
2018-10-05T17:24:47.995Z,9.07
2018-10-05T17:27:15.824Z,8.40
2018-10-05T17:29:43.701Z,10.17
2018-10-05T17:32:11.616Z,8.33
2018-10-05T17:34:39.398Z,9.27
2018-10-05T17:37:08.434Z,14.23
2018-10-05T17:39:36.274Z,11.87
2018-10-05T17:42:04.230Z,507.17
2018-10-05T17:44:31.998Z,574.83
2018-10-05T17:46:59.788Z,267.30
2018-10-05T17:49:27.620Z,273.30
2018-10-05T17:51:55.397Z,271.90
2018-10-05T17:54:23.190Z,121.20
2018-10-05T17:56:50.971Z,41.17
2018-10-05T17:59:18.802Z,28.13
2018-10-05T18:01:46.664Z,20.73
2018-10-05T18:04:14.421Z,12.47
2018-10-05T18:06:42.197Z,11.17
2018-10-05T18:09:09.958Z,12.43
2018-10-05T18:11:37.812Z,11.23
2018-10-05T18:14:05.623Z,10.37
2018-10-05T18:16:33.481Z,11.17
2018-10-05T18:19:01.278Z,11.20
2018-10-05T18:21:29.070Z,11.83
2018-10-05T18:23:56.894Z,14.87
2018-10-05T18:26:24.687Z,9.87
2018-10-05T18:28:52.683Z,8.33
2018-10-05T18:31:20.553Z,5.23
2018-10-05T18:33:48.485Z,5.33
2018-10-05T18:36:16.169Z,8.63
2018-10-05T18:38:43.921Z,6.70
2018-10-05T18:41:12.683Z,4.17
2018-10-05T18:43:40.446Z,6.13
2018-10-05T18:46:08.379Z,5.43
2018-10-05T18:48:36.425Z,4.23
2018-10-05T18:51:04.232Z,5.90
2018-10-05T18:53:31.999Z,6.63
2018-10-05T18:56:05.166Z,10.17
2018-10-05T18:58:33.015Z,12.50
2018-10-05T19:01:00.783Z,7.73
2018-10-05T19:03:28.658Z,8.00
2018-10-05T19:05:56.439Z,7.80
2018-10-05T19:08:24.235Z,9.07
2018-10-05T19:10:52.066Z,7.73
2018-10-05T19:13:19.873Z,9.53
2018-10-05T19:15:47.749Z,10.20
2018-10-05T19:18:15.507Z,6.97
2018-10-05T19:20:43.327Z,6.80
2018-10-05T19:23:11.108Z,7.07
2018-10-05T19:25:38.856Z,8.40
2018-10-05T19:28:06.626Z,5.57
2018-10-05T19:30:34.384Z,7.83
2018-10-05T19:33:02.225Z,7.77
2018-10-05T19:35:29.995Z,6.37
2018-10-05T19:37:57.753Z,5.47
2018-10-05T19:40:25.535Z,7.90
2018-10-05T19:42:53.285Z,8.57
2018-10-05T19:45:21.122Z,6.20
2018-10-05T19:47:48.879Z,5.37
2018-10-05T19:50:16.719Z,8.47
2018-10-05T19:52:44.513Z,6.83
2018-10-05T19:55:12.285Z,7.67
2018-10-05T19:57:40.142Z,6.00
2018-10-05T20:00:07.947Z,7.73
2018-10-05T20:02:35.714Z,6.10
2018-10-05T20:05:03.561Z,7.47
2018-10-05T20:07:31.445Z,5.67
2018-10-05T20:09:59.229Z,7.43
2018-10-05T20:12:27.021Z,6.13
2018-10-05T20:14:54.906Z,3.83
2018-10-05T20:17:22.726Z,7.93
2018-10-05T20:19:50.525Z,4.87
2018-10-05T20:22:18.293Z,4.60
2018-10-05T20:24:46.038Z,5.07
2018-10-05T20:27:13.866Z,5.67
2018-10-05T20:29:41.647Z,6.87
2018-10-05T20:32:09.480Z,5.73
2018-10-05T20:34:37.256Z,5.10
2018-10-05T20:37:05.244Z,7.67
2018-10-05T20:39:32.806Z,5.73
2018-10-05T20:42:00.553Z,5.97
2018-10-05T20:44:28.402Z,5.50
2018-10-05T20:46:56.168Z,6.40
2018-10-05T20:49:23.994Z,8.87
2018-10-05T20:51:51.765Z,10.50
2018-10-05T20:54:19.542Z,15.33
2018-10-05T20:56:47.370Z,15.20
2018-10-05T20:59:15.118Z,6.90
2018-10-05T21:01:42.910Z,5.60
2018-10-05T21:04:10.700Z,7.37
2018-10-05T21:06:38.571Z,4.07
2018-10-05T21:09:07.365Z,3.87
2018-10-05T21:11:35.113Z,5.27
2018-10-05T21:14:02.922Z,4.00
2018-10-05T21:16:30.694Z,5.17
2018-10-05T21:18:58.457Z,4.90
2018-10-05T21:21:26.242Z,4.13
2018-10-05T21:23:54.133Z,4.73
2018-10-05T21:26:21.922Z,3.93
2018-10-05T21:28:49.682Z,32.33
2018-10-05T21:31:17.531Z,13.57
2018-10-05T21:33:45.309Z,21.03
2018-10-05T21:36:13.111Z,20.40
2018-10-05T21:38:41.090Z,10.27
2018-10-05T21:41:08.962Z,7.53
2018-10-05T21:43:36.726Z,6.83
2018-10-05T21:46:04.550Z,8.90
2018-10-05T21:48:32.364Z,2.70
2018-10-05T21:51:00.162Z,4.63
2018-10-05T21:53:27.999Z,4.63
2018-10-05T21:55:55.793Z,5.13
2018-10-05T21:58:23.631Z,9.77
2018-10-05T22:00:51.437Z,5.97
2018-10-05T22:03:19.193Z,9.90
2018-10-05T22:05:47.021Z,7.03
2018-10-05T22:08:14.792Z,3.43
2018-10-05T22:10:43.033Z,4.83
2018-10-05T22:13:10.836Z,4.87
2018-10-05T22:15:38.719Z,8.60
2018-10-05T22:18:06.480Z,4.33
2018-10-05T22:20:34.286Z,5.00
2018-10-05T22:23:02.094Z,4.20
2018-10-05T22:25:29.842Z,5.60
2018-10-05T22:27:57.659Z,4.53
2018-10-05T22:30:25.414Z,6.47
2018-10-05T22:32:53.241Z,3.20
2018-10-05T22:35:21.113Z,4.60
2018-10-05T22:37:48.910Z,6.17
2018-10-05T22:40:16.745Z,4.07
2018-10-05T22:42:44.522Z,5.10
2018-10-05T22:45:12.311Z,2.87
2018-10-05T22:47:40.093Z,2.83
2018-10-05T22:50:08.011Z,3.87
2018-10-05T22:52:35.769Z,5.73
2018-10-05T22:55:03.541Z,3.27
2018-10-05T22:57:31.314Z,3.53
2018-10-05T22:59:59.129Z,3.50
2018-10-05T23:02:26.922Z,2.93
2018-10-05T23:04:54.721Z,3.17
2018-10-05T23:07:22.637Z,3.63
2018-10-05T23:09:50.422Z,2.80
2018-10-05T23:12:18.173Z,3.40
2018-10-05T23:14:45.954Z,5.67
2018-10-05T23:17:13.760Z,3.30
2018-10-05T23:19:41.546Z,4.10
2018-10-05T23:22:09.345Z,4.60
2018-10-05T23:24:37.165Z,3.80
2018-10-05T23:27:04.985Z,2.57
2018-10-05T23:29:32.758Z,3.47
2018-10-05T23:32:00.538Z,4.00
2018-10-05T23:34:28.342Z,3.50
2018-10-05T23:36:56.129Z,3.87
2018-10-05T23:39:23.901Z,2.90
2018-10-05T23:41:51.729Z,3.60
2018-10-05T23:44:19.520Z,5.33
2018-10-05T23:46:47.273Z,3.03
2018-10-05T23:49:15.101Z,3.10
2018-10-05T23:51:42.884Z,3.03
2018-10-05T23:54:10.654Z,3.60
2018-10-05T23:56:38.451Z,3.13
2018-10-05T23:59:06.294Z,3.17
